createdAt,value
2023-09-06T00:01:19.421Z,6.47
2023-09-06T00:03:46.129Z,6.65
2023-09-06T00:06:12.744Z,6.70
2023-09-06T00:08:39.349Z,6.88
2023-09-06T00:11:06.691Z,6.97
2023-09-06T00:13:34.571Z,7.22
2023-09-06T00:16:02.169Z,7.00
2023-09-06T00:18:28.992Z,7.68
2023-09-06T00:20:58.544Z,7.72
2023-09-06T00:23:26.388Z,7.00
2023-09-06T00:25:56.736Z,7.32
2023-09-06T00:28:25.741Z,7.63
2023-09-06T00:30:58.467Z,7.43
2023-09-06T00:33:31.729Z,7.80
2023-09-06T00:35:59.150Z,7.47
2023-09-06T00:38:26.321Z,7.18
2023-09-06T00:40:54.895Z,7.85
2023-09-06T00:43:21.474Z,7.68
2023-09-06T00:45:52.210Z,7.07
2023-09-06T00:48:22.824Z,6.63
2023-09-06T00:50:54.097Z,6.55
2023-09-06T00:53:23.000Z,6.43
2023-09-06T00:55:52.423Z,6.00
2023-09-06T00:58:20.450Z,6.43
2023-09-06T01:03:16.344Z,6.65
2023-09-06T01:05:49.225Z,6.30
2023-09-06T01:08:29.773Z,6.60
2023-09-06T01:11:22.733Z,6.35
2023-09-06T01:13:59.841Z,6.25
2023-09-06T01:16:33.831Z,6.88
2023-09-06T01:21:36.158Z,6.60
2023-09-06T01:24:04.590Z,6.90
2023-09-06T01:26:33.297Z,6.93
2023-09-06T01:29:00.046Z,7.30
2023-09-06T01:31:28.796Z,7.05
2023-09-06T01:33:55.744Z,7.43
2023-09-06T01:36:22.416Z,7.75
2023-09-06T01:38:49.023Z,7.63
2023-09-06T01:41:15.542Z,7.70
2023-09-06T01:43:42.117Z,7.53
2023-09-06T01:46:08.734Z,7.68
2023-09-06T01:48:35.337Z,7.55
2023-09-06T01:51:01.927Z,7.55
2023-09-06T01:53:30.289Z,7.22
2023-09-06T01:55:56.869Z,7.25
2023-09-06T01:58:23.398Z,7.57
2023-09-06T02:00:49.964Z,7.40
2023-09-06T02:03:18.069Z,7.60
2023-09-06T02:05:44.895Z,7.78
2023-09-06T02:08:12.426Z,7.88
2023-09-06T02:10:39.102Z,7.97
2023-09-06T02:13:05.757Z,7.93
2023-09-06T02:15:32.279Z,7.68
2023-09-06T02:17:58.837Z,7.80
2023-09-06T02:20:26.758Z,7.72
2023-09-06T02:22:57.554Z,7.25
2023-09-06T02:25:31.933Z,7.13
2023-09-06T02:27:59.273Z,7.50
2023-09-06T02:30:26.256Z,7.18
2023-09-06T02:32:55.704Z,7.70
2023-09-06T02:35:22.266Z,6.95
2023-09-06T02:37:48.923Z,7.10
2023-09-06T02:40:18.756Z,7.10
2023-09-06T02:42:45.491Z,7.88
2023-09-06T02:45:13.043Z,8.02
2023-09-06T02:47:51.730Z,8.02
2023-09-06T02:50:23.916Z,7.97
2023-09-06T02:52:54.764Z,8.02
2023-09-06T02:55:22.241Z,8.13
2023-09-06T02:57:50.626Z,8.02
2023-09-06T03:00:21.003Z,8.20
2023-09-06T03:02:48.427Z,8.30
2023-09-06T03:05:18.870Z,8.75
2023-09-06T03:07:49.327Z,8.18
2023-09-06T03:10:21.149Z,7.80
2023-09-06T03:12:49.315Z,8.50
2023-09-06T03:17:48.050Z,8.13
2023-09-06T03:20:34.214Z,8.38
2023-09-06T03:23:18.484Z,8.32
2023-09-06T03:25:49.604Z,8.15
2023-09-06T03:28:19.921Z,8.30
2023-09-06T03:30:46.973Z,8.05
2023-09-06T03:33:13.638Z,7.78
2023-09-06T03:35:40.281Z,8.35
2023-09-06T03:38:09.949Z,7.95
2023-09-06T03:40:37.280Z,7.80
2023-09-06T03:43:18.396Z,8.25
2023-09-06T03:45:53.014Z,8.90
2023-09-06T03:48:22.433Z,8.02
2023-09-06T03:50:53.256Z,7.82
2023-09-06T03:53:19.904Z,8.48
2023-09-06T03:55:50.797Z,8.68
2023-09-06T03:58:17.364Z,8.15
2023-09-06T04:00:45.845Z,8.52
2023-09-06T04:03:16.242Z,8.52
2023-09-06T04:05:45.218Z,8.88
2023-09-06T04:08:12.617Z,8.93
2023-09-06T04:10:40.370Z,8.63
2023-09-06T04:13:08.754Z,8.32
2023-09-06T04:15:36.343Z,8.10
2023-09-06T04:18:07.696Z,9.02
2023-09-06T04:20:39.846Z,8.52
2023-09-06T04:23:08.955Z,8.57
2023-09-06T04:25:44.470Z,8.45
2023-09-06T04:28:12.758Z,8.10
2023-09-06T04:30:42.050Z,8.70
2023-09-06T04:33:13.874Z,8.15
2023-09-06T04:35:48.438Z,8.70
2023-09-06T04:38:21.781Z,9.50
2023-09-06T04:40:48.605Z,8.68
2023-09-06T04:43:19.291Z,8.43
2023-09-06T04:45:48.389Z,9.23
2023-09-06T04:48:25.152Z,8.82
2023-09-06T04:50:51.881Z,8.70
2023-09-06T04:53:19.480Z,9.00
2023-09-06T04:55:50.298Z,8.27
2023-09-06T04:58:17.086Z,8.93
2023-09-06T05:00:46.055Z,8.82
2023-09-06T05:03:13.066Z,8.98
2023-09-06T05:05:41.696Z,8.60
2023-09-06T05:08:09.472Z,8.95
2023-09-06T05:10:36.856Z,9.40
2023-09-06T05:13:04.122Z,8.90
2023-09-06T05:15:30.696Z,8.68
2023-09-06T05:17:57.251Z,9.23
2023-09-06T05:20:42.239Z,9.55
2023-09-06T05:23:13.639Z,9.52
2023-09-06T05:25:41.850Z,9.35
2023-09-06T05:28:11.175Z,9.32
2023-09-06T05:30:42.093Z,9.43
2023-09-06T05:33:10.144Z,8.98
2023-09-06T05:35:37.453Z,9.40
2023-09-06T05:38:07.334Z,8.68
2023-09-06T05:40:35.746Z,8.90
2023-09-06T05:43:02.728Z,8.43
2023-09-06T05:45:29.296Z,8.63
2023-09-06T05:47:55.939Z,8.45
2023-09-06T05:50:22.615Z,8.40
2023-09-06T05:52:49.326Z,8.88
2023-09-06T05:55:16.107Z,8.43
2023-09-06T05:57:43.444Z,8.95
2023-09-06T06:00:14.368Z,8.73
2023-09-06T06:02:41.544Z,8.65
2023-09-06T06:05:08.658Z,8.25
2023-09-06T06:07:35.140Z,8.48
2023-09-06T06:10:01.789Z,8.93
2023-09-06T06:12:28.404Z,8.05
2023-09-06T06:14:55.030Z,7.72
2023-09-06T06:17:21.878Z,8.20
2023-09-06T06:19:49.467Z,8.30
2023-09-06T06:22:16.074Z,8.80
2023-09-06T06:24:46.238Z,8.45
2023-09-06T06:27:13.332Z,8.48
2023-09-06T06:29:40.315Z,8.30
2023-09-06T06:32:08.308Z,8.18
2023-09-06T06:34:40.064Z,8.35
2023-09-06T06:37:07.239Z,8.07
2023-09-06T06:39:34.061Z,8.43
2023-09-06T06:42:00.749Z,7.70
2023-09-06T06:44:27.236Z,8.45
2023-09-06T06:46:53.775Z,8.00
2023-09-06T06:49:20.993Z,7.63
2023-09-06T06:51:47.619Z,7.90
2023-09-06T06:54:16.777Z,7.85
2023-09-06T06:56:43.340Z,8.38
2023-09-06T06:59:10.286Z,8.15
2023-09-06T07:01:37.299Z,7.82
2023-09-06T07:04:07.504Z,7.75
2023-09-06T07:06:34.335Z,8.60
2023-09-06T07:09:04.604Z,7.70
2023-09-06T07:11:32.507Z,7.32
2023-09-06T07:13:59.247Z,7.72
2023-09-06T07:16:27.638Z,7.47
2023-09-06T07:18:56.066Z,8.20
2023-09-06T07:21:22.569Z,6.93
2023-09-06T07:23:49.225Z,7.85
2023-09-06T07:26:16.163Z,8.10
2023-09-06T07:28:45.171Z,6.82
2023-09-06T07:31:12.952Z,7.45
2023-09-06T07:33:42.597Z,7.15
2023-09-06T07:36:09.192Z,6.47
2023-09-06T07:38:35.917Z,6.97
2023-09-06T07:41:07.716Z,6.95
2023-09-06T07:43:36.342Z,7.38
2023-09-06T07:46:04.434Z,7.32
2023-09-06T07:48:32.525Z,7.18
2023-09-06T07:51:00.522Z,7.00
2023-09-06T07:53:27.951Z,6.88
2023-09-06T07:55:56.400Z,7.13
2023-09-06T07:58:23.765Z,7.05
2023-09-06T08:00:59.342Z,6.47
2023-09-06T08:03:34.756Z,6.50
2023-09-06T08:06:01.600Z,6.72
2023-09-06T08:08:28.451Z,6.38
2023-09-06T08:10:55.145Z,6.65
2023-09-06T08:13:21.654Z,6.78
2023-09-06T08:15:48.312Z,6.60
2023-09-06T08:18:14.960Z,6.45
2023-09-06T08:20:41.657Z,6.43
2023-09-06T08:23:08.243Z,6.30
2023-09-06T08:25:35.112Z,6.50
2023-09-06T08:28:01.664Z,6.57
2023-09-06T08:30:28.680Z,6.43
2023-09-06T08:32:56.430Z,6.88
2023-09-06T08:35:24.448Z,5.95
2023-09-06T08:40:19.857Z,6.25
2023-09-06T08:42:46.534Z,6.20
2023-09-06T08:45:13.218Z,6.18
2023-09-06T08:47:40.970Z,6.57
2023-09-06T08:52:35.910Z,5.80
2023-09-06T08:55:02.465Z,6.13
2023-09-06T08:57:29.112Z,6.35
2023-09-06T08:59:55.819Z,6.20
2023-09-06T09:02:22.339Z,5.78
2023-09-06T09:04:50.403Z,6.38
2023-09-06T09:07:19.659Z,5.70
2023-09-06T09:10:08.516Z,5.25
2023-09-06T09:12:38.617Z,5.95
2023-09-06T09:15:21.250Z,5.60
2023-09-06T09:17:59.927Z,5.53
2023-09-06T09:20:28.213Z,5.05
2023-09-06T09:23:02.364Z,6.00
2023-09-06T09:25:29.214Z,5.10
2023-09-06T09:27:58.603Z,5.22
2023-09-06T09:30:27.863Z,4.97
2023-09-06T09:32:59.972Z,4.82
2023-09-06T09:35:27.292Z,4.80
2023-09-06T09:37:53.798Z,4.88
2023-09-06T09:40:22.291Z,4.28
2023-09-06T09:42:56.735Z,4.38
2023-09-06T09:45:25.993Z,4.10
2023-09-06T09:47:54.464Z,4.07
2023-09-06T09:50:34.382Z,3.67
2023-09-06T09:53:15.007Z,4.28
2023-09-06T09:55:48.591Z,4.30
2023-09-06T09:58:16.996Z,4.10
2023-09-06T10:00:44.082Z,4.28
2023-09-06T10:03:11.721Z,4.45
2023-09-06T10:08:08.943Z,4.07
2023-09-06T10:10:38.405Z,3.80
2023-09-06T10:13:08.990Z,3.70
2023-09-06T10:15:36.776Z,3.05
2023-09-06T10:20:33.483Z,3.35
2023-09-06T10:23:01.464Z,3.40
2023-09-06T10:25:28.095Z,3.15
2023-09-06T10:27:56.427Z,3.05
2023-09-06T10:30:49.691Z,2.90
2023-09-06T10:33:35.119Z,3.33
2023-09-06T10:36:08.625Z,3.33
2023-09-06T10:38:59.305Z,3.40
2023-09-06T10:41:28.734Z,3.45
2023-09-06T10:44:02.293Z,3.80
2023-09-06T10:49:17.634Z,3.38
2023-09-06T10:52:05.715Z,3.80
2023-09-06T10:54:41.461Z,3.50
2023-09-06T10:57:09.789Z,3.92
2023-09-06T10:59:40.049Z,3.28
2023-09-06T11:02:11.036Z,3.63
2023-09-06T11:04:37.964Z,3.17
2023-09-06T11:07:10.871Z,2.90
2023-09-06T11:09:51.825Z,2.38
2023-09-06T11:12:18.811Z,2.60
2023-09-06T11:14:49.041Z,2.50
2023-09-06T11:17:25.001Z,2.70
2023-09-06T11:19:51.623Z,3.10
2023-09-06T11:22:18.403Z,2.90
2023-09-06T11:24:45.053Z,2.85
2023-09-06T11:27:18.689Z,3.03
2023-09-06T11:32:16.960Z,2.75
2023-09-06T11:34:46.792Z,2.53
2023-09-06T11:37:16.770Z,2.35
2023-09-06T11:39:45.340Z,2.70
2023-09-06T11:42:15.780Z,2.60
2023-09-06T11:44:54.447Z,2.70
2023-09-06T11:47:24.670Z,2.70
2023-09-06T11:49:51.569Z,2.78
2023-09-06T11:52:20.336Z,2.58
2023-09-06T11:54:51.226Z,2.70
2023-09-06T11:57:22.500Z,2.72
2023-09-06T11:59:53.816Z,2.80
2023-09-06T12:02:22.278Z,2.55
2023-09-06T12:04:54.082Z,2.40
2023-09-06T12:07:24.577Z,2.42
2023-09-06T12:09:52.028Z,2.60
2023-09-06T12:12:18.614Z,2.42
2023-09-06T12:14:45.586Z,2.35
2023-09-06T12:17:12.627Z,2.40
2023-09-06T12:19:39.327Z,2.42
2023-09-06T12:22:06.548Z,2.50
2023-09-06T12:24:35.018Z,2.40
2023-09-06T12:27:02.081Z,2.70
2023-09-06T12:29:28.633Z,2.42
2023-09-06T12:31:55.148Z,2.42
2023-09-06T12:34:22.794Z,2.20
2023-09-06T12:36:49.374Z,2.30
2023-09-06T12:39:15.833Z,2.30
2023-09-06T12:41:43.474Z,2.20
2023-09-06T12:44:10.051Z,2.30
2023-09-06T12:46:36.614Z,2.08
2023-09-06T12:49:05.448Z,2.20
2023-09-06T12:51:31.965Z,2.45
2023-09-06T12:53:58.590Z,2.20
2023-09-06T12:56:25.071Z,2.45
2023-09-06T12:58:51.579Z,2.33
2023-09-06T13:01:18.181Z,2.40
2023-09-06T13:03:47.738Z,2.45
2023-09-06T13:06:14.367Z,2.30
2023-09-06T13:08:42.834Z,2.40
2023-09-06T13:11:09.568Z,2.60
2023-09-06T13:13:36.884Z,2.40
2023-09-06T13:16:07.319Z,2.47
2023-09-06T13:18:34.356Z,2.40
2023-09-06T13:21:01.420Z,2.30
2023-09-06T13:23:27.923Z,2.22
2023-09-06T13:25:54.432Z,2.65
2023-09-06T13:28:20.921Z,2.58
2023-09-06T13:30:47.447Z,2.50
2023-09-06T13:33:14.049Z,2.70
2023-09-06T13:35:40.598Z,2.42
2023-09-06T13:38:07.204Z,2.50
2023-09-06T13:40:33.770Z,2.55
2023-09-06T13:43:00.498Z,2.33
2023-09-06T13:45:28.688Z,2.25
2023-09-06T13:47:57.077Z,2.50
2023-09-06T13:50:23.952Z,2.67
2023-09-06T13:52:50.620Z,2.40
2023-09-06T13:55:17.343Z,2.50
2023-09-06T13:57:43.897Z,2.47
2023-09-06T14:00:12.689Z,2.53
2023-09-06T14:02:39.466Z,2.42
2023-09-06T14:05:06.480Z,2.30
2023-09-06T14:07:33.149Z,2.47
2023-09-06T14:09:59.821Z,2.33
2023-09-06T14:12:27.941Z,2.30
2023-09-06T14:14:57.646Z,2.50
2023-09-06T14:17:24.269Z,2.50
2023-09-06T14:19:51.321Z,2.30
2023-09-06T14:22:17.792Z,2.40
2023-09-06T14:24:44.401Z,2.63
2023-09-06T14:27:10.916Z,2.40
2023-09-06T14:29:37.394Z,2.47
2023-09-06T14:32:04.234Z,2.70
2023-09-06T14:34:30.789Z,2.58
2023-09-06T14:36:57.383Z,2.83
2023-09-06T14:39:24.512Z,2.50
2023-09-06T14:41:51.468Z,3.03
2023-09-06T14:44:18.696Z,2.60
2023-09-06T14:46:45.525Z,2.25
2023-09-06T14:49:13.408Z,2.70
2023-09-06T14:51:40.246Z,2.50
2023-09-06T14:54:07.716Z,2.67
2023-09-06T14:59:05.005Z,2.55
2023-09-06T15:01:31.642Z,2.58
2023-09-06T15:03:58.610Z,2.30
2023-09-06T15:06:25.227Z,2.33
2023-09-06T15:08:57.330Z,2.42
2023-09-06T15:11:24.199Z,2.45
2023-09-06T15:13:50.659Z,2.42
2023-09-06T15:16:17.268Z,2.63
2023-09-06T15:18:46.006Z,2.83
2023-09-06T15:21:12.650Z,2.83
2023-09-06T15:23:39.176Z,2.67
2023-09-06T15:26:07.402Z,2.63
2023-09-06T15:28:33.997Z,2.60
2023-09-06T15:31:00.766Z,2.55
2023-09-06T15:33:27.461Z,2.70
2023-09-06T15:35:55.730Z,2.80
2023-09-06T15:38:22.586Z,2.53
2023-09-06T15:40:49.854Z,3.03
2023-09-06T15:43:16.421Z,3.10
2023-09-06T15:45:43.354Z,2.53
2023-09-06T15:48:10.019Z,2.70
2023-09-06T15:50:36.787Z,2.65
2023-09-06T15:53:03.553Z,2.70
2023-09-06T15:55:30.149Z,2.60
2023-09-06T15:57:57.931Z,2.72
2023-09-06T16:00:32.539Z,2.60
2023-09-06T16:03:00.854Z,2.90
2023-09-06T16:05:27.865Z,2.85
2023-09-06T16:07:57.494Z,3.33
2023-09-06T16:10:27.809Z,2.70
2023-09-06T16:12:54.597Z,2.83
2023-09-06T16:15:23.676Z,2.97
2023-09-06T16:17:51.155Z,2.92
2023-09-06T16:22:44.394Z,2.60
2023-09-06T16:25:11.719Z,2.70
2023-09-06T16:30:07.255Z,3.30
2023-09-06T16:32:34.214Z,2.97
2023-09-06T16:35:08.706Z,3.30
2023-09-06T16:37:39.372Z,2.83
2023-09-06T16:40:11.383Z,2.72
2023-09-06T16:42:38.438Z,2.78
2023-09-06T16:45:07.560Z,3.05
2023-09-06T16:47:34.536Z,3.08
2023-09-06T16:50:01.886Z,3.00
2023-09-06T16:52:28.514Z,2.80
2023-09-06T16:54:56.881Z,2.75
2023-09-06T16:57:25.578Z,3.00
2023-09-06T16:59:52.147Z,2.90
2023-09-06T17:02:21.135Z,2.90
2023-09-06T17:04:47.994Z,3.30
2023-09-06T17:07:14.812Z,3.42
2023-09-06T17:09:41.282Z,3.30
2023-09-06T17:12:08.157Z,3.20
2023-09-06T17:14:34.668Z,2.88
2023-09-06T17:17:01.271Z,3.08
2023-09-06T17:19:27.868Z,3.17
2023-09-06T17:21:54.383Z,3.30
2023-09-06T17:24:22.022Z,3.20
2023-09-06T17:26:49.451Z,3.17
2023-09-06T17:29:16.144Z,3.25
2023-09-06T17:31:43.607Z,3.00
2023-09-06T17:34:13.180Z,3.20
2023-09-06T17:36:40.568Z,3.17
2023-09-06T17:39:09.309Z,3.08
2023-09-06T17:41:37.106Z,3.42
2023-09-06T17:44:07.020Z,3.42
2023-09-06T17:46:37.156Z,3.38
2023-09-06T17:49:09.916Z,3.40
2023-09-06T17:51:37.733Z,3.33
2023-09-06T17:54:04.550Z,3.08
2023-09-06T17:56:31.630Z,3.70
2023-09-06T17:58:58.732Z,3.55
2023-09-06T18:01:25.696Z,4.05
2023-09-06T18:03:53.241Z,3.55
2023-09-06T18:06:25.563Z,3.58
2023-09-06T18:08:55.416Z,3.97
2023-09-06T18:11:23.006Z,4.25
2023-09-06T18:16:17.791Z,3.53
2023-09-06T18:18:45.154Z,3.58
2023-09-06T18:21:15.044Z,4.00
2023-09-06T18:23:44.165Z,5.05
2023-09-06T18:26:11.615Z,5.43
2023-09-06T18:28:38.337Z,7.45
2023-09-06T18:31:05.299Z,7.03
2023-09-06T18:33:31.901Z,6.10
2023-09-06T18:35:58.846Z,5.95
2023-09-06T18:38:27.856Z,5.90
2023-09-06T18:40:57.043Z,6.95
2023-09-06T18:43:23.947Z,5.68
2023-09-06T18:45:51.835Z,5.10
2023-09-06T18:48:22.034Z,3.97
2023-09-06T18:50:50.692Z,5.57
2023-09-06T18:53:17.539Z,4.55
2023-09-06T18:55:47.505Z,4.10
2023-09-06T18:58:15.509Z,4.80
2023-09-06T19:00:42.754Z,4.35
2023-09-06T19:03:13.878Z,4.65
2023-09-06T19:05:42.479Z,4.85
2023-09-06T19:08:16.287Z,4.63
2023-09-06T19:10:52.389Z,5.30
2023-09-06T19:13:19.455Z,5.40
2023-09-06T19:15:48.799Z,4.70
2023-09-06T19:18:17.120Z,4.68
2023-09-06T19:20:43.727Z,5.10
2023-09-06T19:23:18.198Z,4.35
2023-09-06T19:25:52.681Z,4.70
2023-09-06T19:28:20.186Z,3.88
2023-09-06T19:30:49.391Z,4.15
2023-09-06T19:33:16.129Z,4.20
2023-09-06T19:35:44.301Z,4.00
2023-09-06T19:38:10.966Z,4.03
2023-09-06T19:40:40.461Z,3.85
2023-09-06T19:43:07.050Z,4.03
2023-09-06T19:45:33.615Z,4.22
2023-09-06T19:48:00.304Z,3.72
2023-09-06T19:50:28.543Z,4.10
2023-09-06T19:52:57.494Z,3.92
2023-09-06T19:55:24.070Z,4.00
2023-09-06T19:57:50.642Z,3.80
2023-09-06T20:00:17.309Z,3.90
2023-09-06T20:02:44.152Z,4.30
2023-09-06T20:05:11.292Z,4.43
2023-09-06T20:07:38.459Z,4.28
2023-09-06T20:10:05.556Z,4.43
2023-09-06T20:12:32.076Z,4.70
2023-09-06T20:14:58.652Z,5.15
2023-09-06T20:17:25.283Z,4.95
2023-09-06T20:19:52.509Z,5.00
2023-09-06T20:22:19.124Z,4.75
2023-09-06T20:24:45.651Z,4.80
2023-09-06T20:27:12.262Z,5.07
2023-09-06T20:29:40.122Z,4.93
2023-09-06T20:32:07.572Z,5.32
2023-09-06T20:34:34.634Z,5.03
2023-09-06T20:37:01.084Z,5.32
2023-09-06T20:39:27.543Z,5.55
2023-09-06T20:41:54.127Z,5.55
2023-09-06T20:44:21.238Z,5.13
2023-09-06T20:46:47.802Z,5.50
2023-09-06T20:49:17.496Z,5.40
2023-09-06T20:51:45.864Z,5.43
2023-09-06T20:54:12.553Z,5.25
2023-09-06T20:56:40.130Z,5.70
2023-09-06T20:59:06.726Z,5.07
2023-09-06T21:01:33.339Z,5.30
2023-09-06T21:03:59.971Z,5.40
2023-09-06T21:06:26.583Z,5.82
2023-09-06T21:08:54.044Z,5.75
2023-09-06T21:11:20.777Z,5.70
2023-09-06T21:13:47.298Z,6.07
2023-09-06T21:16:13.888Z,6.18
2023-09-06T21:18:40.617Z,6.15
2023-09-06T21:21:07.244Z,6.10
2023-09-06T21:23:35.527Z,5.95
2023-09-06T21:26:05.402Z,6.38
2023-09-06T21:28:32.255Z,6.35
2023-09-06T21:31:02.722Z,6.05
2023-09-06T21:33:29.470Z,6.43
2023-09-06T21:35:55.939Z,6.60
2023-09-06T21:38:22.406Z,6.32
2023-09-06T21:40:48.918Z,6.00
2023-09-06T21:43:19.248Z,6.00
2023-09-06T21:45:47.451Z,6.30
2023-09-06T21:48:14.383Z,6.85
2023-09-06T21:50:42.548Z,6.47
2023-09-06T21:53:10.103Z,6.38
2023-09-06T21:55:37.562Z,6.20
2023-09-06T21:58:10.576Z,6.47
2023-09-06T22:00:38.710Z,6.78
2023-09-06T22:03:05.500Z,6.45
2023-09-06T22:05:32.186Z,6.28
2023-09-06T22:07:58.868Z,5.75
2023-09-06T22:10:26.232Z,5.47
2023-09-06T22:12:52.884Z,5.10
2023-09-06T22:15:19.521Z,4.80
2023-09-06T22:17:46.123Z,4.88
2023-09-06T22:20:12.762Z,4.90
2023-09-06T22:22:39.366Z,5.18
2023-09-06T22:25:07.321Z,5.22
2023-09-06T22:27:34.588Z,5.50
2023-09-06T22:30:01.499Z,5.70
2023-09-06T22:32:28.098Z,6.10
2023-09-06T22:34:55.200Z,5.72
2023-09-06T22:37:21.804Z,7.15
2023-09-06T22:39:48.445Z,6.93
2023-09-06T22:42:15.099Z,7.10
2023-09-06T22:44:41.822Z,8.00
2023-09-06T22:47:09.547Z,7.97
2023-09-06T22:49:38.345Z,8.30
2023-09-06T22:52:07.302Z,7.57
2023-09-06T22:54:36.830Z,7.35
2023-09-06T22:57:04.526Z,7.10
2023-09-06T22:59:31.675Z,6.85
2023-09-06T23:01:58.793Z,7.70
2023-09-06T23:04:25.755Z,7.05
2023-09-06T23:06:52.947Z,7.43
2023-09-06T23:09:20.320Z,7.43
2023-09-06T23:11:51.291Z,7.30
2023-09-06T23:14:19.518Z,7.63
2023-09-06T23:16:49.959Z,7.00
2023-09-06T23:19:21.980Z,7.15
2023-09-06T23:21:52.776Z,6.88
2023-09-06T23:24:20.078Z,7.25
2023-09-06T23:26:47.634Z,6.72
2023-09-06T23:29:17.087Z,6.60
2023-09-06T23:31:54.169Z,6.45
2023-09-06T23:34:25.566Z,5.85
2023-09-06T23:36:52.917Z,5.38
2023-09-06T23:39:23.257Z,6.03
2023-09-06T23:41:57.844Z,5.43
2023-09-06T23:44:25.013Z,5.20
2023-09-06T23:46:51.870Z,5.20
2023-09-06T23:49:21.152Z,5.50
2023-09-06T23:51:48.262Z,5.72
2023-09-06T23:54:15.253Z,6.45
2023-09-06T23:56:41.973Z,7.00
2023-09-06T23:59:08.683Z,7.03
